createdAt,value
2018-05-27T00:03:12.951Z,18.80
2018-05-27T00:08:13.947Z,20.17
2018-05-27T00:13:14.921Z,20.43
2018-05-27T00:18:15.859Z,17.40
2018-05-27T00:23:16.824Z,19.63
2018-05-27T00:28:17.805Z,19.87
2018-05-27T00:33:18.764Z,19.67
2018-05-27T00:38:19.702Z,18.63
2018-05-27T00:43:20.685Z,21.50
2018-05-27T00:48:21.672Z,19.50
2018-05-27T00:53:35.153Z,22.60
2018-05-27T00:58:36.124Z,21.47
2018-05-27T01:03:37.100Z,23.97
2018-05-27T01:08:38.103Z,21.87
2018-05-27T01:13:39.038Z,22.50
2018-05-27T01:18:40.025Z,26.10
2018-05-27T01:23:40.996Z,25.73
2018-05-27T01:28:41.977Z,26.30
2018-05-27T01:33:42.955Z,25.30
2018-05-27T01:38:43.924Z,27.77
2018-05-27T01:43:44.880Z,27.33
2018-05-27T01:48:45.846Z,28.37
2018-05-27T01:53:46.796Z,28.73
2018-05-27T01:58:47.786Z,29.50
2018-05-27T02:03:48.748Z,28.70
2018-05-27T02:08:49.728Z,26.70
2018-05-27T02:13:50.671Z,28.37
2018-05-27T02:18:51.655Z,28.47
2018-05-27T02:23:52.617Z,27.87
2018-05-27T02:28:53.571Z,28.33
2018-05-27T02:33:54.533Z,29.07
2018-05-27T02:38:55.485Z,26.50
2018-05-27T02:43:56.516Z,29.43
2018-05-27T02:48:57.505Z,27.33
2018-05-27T02:53:58.447Z,27.83
2018-05-27T02:58:59.385Z,26.03
2018-05-27T03:04:00.332Z,24.60
2018-05-27T03:09:01.264Z,23.60
2018-05-27T03:14:02.203Z,22.77
2018-05-27T03:19:03.162Z,22.40
2018-05-27T03:24:04.131Z,22.17
2018-05-27T03:29:05.090Z,24.50
2018-05-27T03:34:06.036Z,22.30
2018-05-27T03:39:07.000Z,21.53
2018-05-27T03:44:07.961Z,20.17
2018-05-27T03:49:08.953Z,19.80
2018-05-27T03:54:09.953Z,20.97
2018-05-27T03:59:10.929Z,18.27
2018-05-27T04:04:24.127Z,18.93
2018-05-27T04:09:25.080Z,17.80
2018-05-27T04:14:26.044Z,16.20
2018-05-27T04:19:26.986Z,14.50
2018-05-27T04:24:28.507Z,14.60
2018-05-27T04:29:29.443Z,14.70
2018-05-27T04:34:30.412Z,17.00
2018-05-27T04:39:31.373Z,16.97
2018-05-27T04:44:32.364Z,17.10
2018-05-27T04:49:33.355Z,12.77
2018-05-27T04:54:34.307Z,14.87
2018-05-27T04:59:35.276Z,14.50
2018-05-27T05:04:36.223Z,13.83
2018-05-27T05:09:37.181Z,12.10
2018-05-27T05:14:38.146Z,12.13
2018-05-27T05:19:39.101Z,11.60
2018-05-27T05:24:40.061Z,12.03
2018-05-27T05:29:41.024Z,10.43
2018-05-27T05:34:41.994Z,11.03
2018-05-27T05:39:42.944Z,11.07
2018-05-27T05:44:43.901Z,10.93
2018-05-27T05:49:44.870Z,11.47
2018-05-27T05:54:45.819Z,10.20
2018-05-27T05:59:53.632Z,8.40
2018-05-27T06:04:54.576Z,9.87
2018-05-27T06:09:55.540Z,10.70
2018-05-27T06:14:56.516Z,8.80
2018-05-27T06:19:57.511Z,9.83
2018-05-27T06:24:58.472Z,10.00
2018-05-27T06:29:59.445Z,10.43
2018-05-27T06:35:00.451Z,11.07
2018-05-27T06:40:01.409Z,10.03
2018-05-27T06:45:02.374Z,11.30
2018-05-27T06:50:03.375Z,14.60
2018-05-27T06:55:04.347Z,13.80
2018-05-27T07:00:05.334Z,13.73
2018-05-27T07:05:06.306Z,15.43
2018-05-27T07:10:07.259Z,17.33
2018-05-27T07:15:08.227Z,14.23
2018-05-27T07:20:09.181Z,16.47
2018-05-27T07:25:10.152Z,15.23
2018-05-27T07:30:11.145Z,14.47
2018-05-27T07:35:12.130Z,13.00
2018-05-27T07:40:13.121Z,14.30
2018-05-27T07:45:14.082Z,15.60
2018-05-27T07:50:15.066Z,13.90
2018-05-27T07:55:16.073Z,15.13
2018-05-27T08:00:17.069Z,14.00
2018-05-27T08:05:18.026Z,12.93
2018-05-27T08:10:18.994Z,14.50
2018-05-27T08:15:19.970Z,13.80
2018-05-27T08:20:20.976Z,13.17
2018-05-27T08:25:22.024Z,10.33
2018-05-27T08:30:23.039Z,10.80
2018-05-27T08:35:24.032Z,10.07
2018-05-27T08:40:25.011Z,8.40
2018-05-27T08:45:25.988Z,8.93
2018-05-27T08:50:27.034Z,7.97
2018-05-27T08:55:28.053Z,9.13
2018-05-27T09:00:29.045Z,8.37
2018-05-27T09:05:30.016Z,8.30
2018-05-27T09:10:31.000Z,7.10
2018-05-27T09:15:32.026Z,7.47
2018-05-27T09:20:33.018Z,6.80
2018-05-27T09:25:34.001Z,6.30
2018-05-27T09:30:34.991Z,6.50
2018-05-27T09:35:35.975Z,6.00
2018-05-27T09:40:36.983Z,6.90
2018-05-27T09:45:38.015Z,7.13
2018-05-27T09:50:39.028Z,7.47
2018-05-27T09:55:40.035Z,7.97
2018-05-27T10:00:41.040Z,8.23
2018-05-27T10:05:41.994Z,8.80
2018-05-27T10:10:42.987Z,8.43
2018-05-27T10:15:43.981Z,8.17
2018-05-27T10:20:44.964Z,9.20
2018-05-27T10:25:46.014Z,9.83
2018-05-27T10:30:46.947Z,10.10
2018-05-27T10:35:47.937Z,10.50
2018-05-27T10:40:48.949Z,10.83
2018-05-27T10:45:49.896Z,11.93
2018-05-27T10:50:50.935Z,12.80
2018-05-27T10:55:51.908Z,12.27
2018-05-27T11:00:52.872Z,15.60
2018-05-27T11:05:53.858Z,14.63
2018-05-27T11:10:54.848Z,14.80
2018-05-27T11:15:55.814Z,14.73
2018-05-27T11:20:56.808Z,15.47
2018-05-27T11:25:57.785Z,15.63
2018-05-27T11:30:58.782Z,14.60
2018-05-27T11:35:59.745Z,13.60
2018-05-27T11:41:00.740Z,13.73
2018-05-27T11:46:01.731Z,15.10
2018-05-27T11:51:02.785Z,14.00
2018-05-27T11:56:03.793Z,15.60
2018-05-27T12:01:11.146Z,12.40
2018-05-27T12:06:12.592Z,15.40
2018-05-27T12:11:13.576Z,14.43
2018-05-27T12:16:14.641Z,13.07
2018-05-27T12:21:15.683Z,11.80
2018-05-27T12:26:16.677Z,10.83
2018-05-27T12:31:17.665Z,9.93
2018-05-27T12:36:18.694Z,12.03
2018-05-27T12:41:19.679Z,10.63
2018-05-27T12:46:21.689Z,10.83
2018-05-27T12:51:23.521Z,10.30
2018-05-27T12:56:24.502Z,10.10
2018-05-27T13:01:25.479Z,8.80
2018-05-27T13:06:26.516Z,8.07
2018-05-27T13:11:27.496Z,10.00
2018-05-27T13:16:28.613Z,10.50
2018-05-27T13:21:29.521Z,44.20
2018-05-27T13:26:30.524Z,13.80
2018-05-27T13:31:31.543Z,11.43
2018-05-27T13:36:32.586Z,12.43
2018-05-27T13:41:33.562Z,13.67
2018-05-27T13:46:34.537Z,13.07
2018-05-27T13:51:35.591Z,14.70
2018-05-27T13:56:36.606Z,12.10
2018-05-27T14:01:37.605Z,11.90
2018-05-27T14:06:38.644Z,12.40
2018-05-27T14:11:39.682Z,11.37
2018-05-27T14:16:40.731Z,11.40
2018-05-27T14:21:41.773Z,9.00
2018-05-27T14:26:42.778Z,8.53
2018-05-27T14:31:43.864Z,8.30
2018-05-27T14:36:44.885Z,8.83
2018-05-27T14:41:45.890Z,8.60
2018-05-27T14:46:46.907Z,8.00
2018-05-27T14:51:47.944Z,9.57
2018-05-27T14:56:48.941Z,9.83
2018-05-27T15:01:49.954Z,9.27
2018-05-27T15:06:50.977Z,10.57
2018-05-27T15:11:52.067Z,12.93
2018-05-27T15:16:53.195Z,11.40
2018-05-27T15:21:54.248Z,12.40
2018-05-27T15:26:56.324Z,10.87
2018-05-27T15:31:57.435Z,11.03
2018-05-27T15:36:58.413Z,11.27
2018-05-27T15:41:59.431Z,12.77
2018-05-27T15:47:00.486Z,11.67
2018-05-27T15:52:01.603Z,9.90
2018-05-27T15:57:02.625Z,13.27
2018-05-27T16:02:03.641Z,12.30
2018-05-27T16:07:04.687Z,12.93
2018-05-27T16:12:05.738Z,11.80
2018-05-27T16:17:06.789Z,13.80
2018-05-27T16:22:07.862Z,13.77
2018-05-27T16:27:08.921Z,13.17
2018-05-27T16:32:09.947Z,13.87
2018-05-27T16:37:10.979Z,12.30
2018-05-27T16:42:11.982Z,12.60
2018-05-27T16:47:13.002Z,13.37
2018-05-27T16:52:14.028Z,12.17
2018-05-27T16:57:15.044Z,13.90
2018-05-27T17:02:16.013Z,16.37
2018-05-27T17:07:17.021Z,15.50
2018-05-27T17:12:18.119Z,14.87
2018-05-27T17:17:19.158Z,16.60
2018-05-27T17:22:20.159Z,15.60
2018-05-27T17:27:21.150Z,15.10
2018-05-27T17:32:22.157Z,17.10
2018-05-27T17:37:23.175Z,16.90
2018-05-27T17:42:24.170Z,17.33
2018-05-27T17:47:25.145Z,16.37
2018-05-27T17:52:26.181Z,19.23
2018-05-27T17:57:27.228Z,20.10
2018-05-27T18:02:28.240Z,20.23
2018-05-27T18:07:29.232Z,20.07
2018-05-27T18:12:30.253Z,20.83
2018-05-27T18:17:31.292Z,22.10
2018-05-27T18:22:32.285Z,19.97
2018-05-27T18:27:33.294Z,23.07
2018-05-27T18:32:37.217Z,22.63
2018-05-27T18:37:38.287Z,20.90
2018-05-27T18:42:41.402Z,22.00
2018-05-27T18:47:42.479Z,23.73
2018-05-27T18:52:43.548Z,23.60
2018-05-27T18:57:44.537Z,25.03
2018-05-27T19:02:45.560Z,23.53
2018-05-27T19:07:46.550Z,24.80
2018-05-27T19:12:47.565Z,27.27
2018-05-27T19:17:48.575Z,25.80
2018-05-27T19:22:49.570Z,25.43
2018-05-27T19:27:50.625Z,29.13
2018-05-27T19:32:51.693Z,29.57
2018-05-27T19:37:52.696Z,29.27
2018-05-27T19:42:53.692Z,29.87
2018-05-27T19:47:54.715Z,27.17
2018-05-27T19:52:55.800Z,32.93
2018-05-27T19:57:56.861Z,28.60
2018-05-27T20:02:57.868Z,27.90
2018-05-27T20:07:58.873Z,29.53
2018-05-27T20:12:59.900Z,28.13
2018-05-27T20:18:00.958Z,24.47
2018-05-27T20:23:01.949Z,24.60
2018-05-27T20:28:02.990Z,23.73
2018-05-27T20:33:03.984Z,25.77
2018-05-27T20:38:04.997Z,25.73
2018-05-27T20:43:06.007Z,25.00
2018-05-27T20:48:07.035Z,27.13
2018-05-27T20:53:08.062Z,24.60
2018-05-27T20:58:09.059Z,22.60
2018-05-27T21:03:10.055Z,24.27
2018-05-27T21:08:11.070Z,22.30
2018-05-27T21:13:12.051Z,24.17
2018-05-27T21:18:13.055Z,25.97
2018-05-27T21:23:14.056Z,23.70
2018-05-27T21:28:15.120Z,23.97
2018-05-27T21:33:16.105Z,24.63
2018-05-27T21:38:17.127Z,23.47
2018-05-27T21:43:18.110Z,27.67
2018-05-27T21:48:19.099Z,25.53
2018-05-27T21:53:20.682Z,28.90
2018-05-27T21:58:21.825Z,27.40
2018-05-27T22:03:22.820Z,31.90
2018-05-27T22:08:23.846Z,29.67
2018-05-27T22:13:24.823Z,29.10
2018-05-27T22:18:25.806Z,28.70
2018-05-27T22:23:26.781Z,30.40
2018-05-27T22:28:27.750Z,28.87
2018-05-27T22:33:28.759Z,29.00
2018-05-27T22:38:29.741Z,30.40
2018-05-27T22:43:30.720Z,25.13
2018-05-27T22:48:31.676Z,29.47
2018-05-27T22:53:32.698Z,28.17
2018-05-27T22:58:33.671Z,27.17
2018-05-27T23:03:34.615Z,27.20
2018-05-27T23:08:35.599Z,29.97
2018-05-27T23:13:36.587Z,28.13
2018-05-27T23:18:37.624Z,26.87
2018-05-27T23:23:38.584Z,27.47
2018-05-27T23:28:39.526Z,25.40
2018-05-27T23:33:40.487Z,26.87
2018-05-27T23:38:41.444Z,28.70
2018-05-27T23:43:42.398Z,26.07
2018-05-27T23:48:43.366Z,26.90
2018-05-27T23:53:44.345Z,28.23
2018-05-27T23:58:45.301Z,27.07
